createdAt,value
2018-09-27T00:00:22.677Z,3.00
2018-09-27T00:02:51.288Z,3.47
2018-09-27T00:05:19.965Z,4.70
2018-09-27T00:07:48.616Z,5.20
2018-09-27T00:10:17.221Z,3.20
2018-09-27T00:12:45.874Z,4.47
2018-09-27T00:15:14.492Z,6.67
2018-09-27T00:17:43.136Z,5.10
2018-09-27T00:20:11.755Z,3.47
2018-09-27T00:22:40.474Z,4.80
2018-09-27T00:25:09.118Z,9.47
2018-09-27T00:27:37.807Z,2.43
2018-09-27T00:30:06.477Z,3.57
2018-09-27T00:32:35.173Z,4.33
2018-09-27T00:35:04.406Z,5.07
2018-09-27T00:37:33.076Z,3.50
2018-09-27T00:40:01.708Z,3.83
2018-09-27T00:42:30.376Z,2.77
2018-09-27T00:44:59.047Z,2.77
2018-09-27T00:47:27.689Z,9.83
2018-09-27T00:49:56.429Z,10.87
2018-09-27T00:52:25.184Z,5.47
2018-09-27T00:54:53.949Z,6.97
2018-09-27T00:57:22.651Z,3.27
2018-09-27T00:59:51.356Z,5.43
2018-09-27T01:02:20.286Z,6.43
2018-09-27T01:04:48.978Z,3.27
2018-09-27T01:07:17.587Z,5.17
2018-09-27T01:09:46.311Z,6.33
2018-09-27T01:12:15.061Z,6.63
2018-09-27T01:14:43.696Z,6.90
2018-09-27T01:17:12.380Z,4.13
2018-09-27T01:19:41.060Z,5.80
2018-09-27T01:22:09.762Z,8.17
2018-09-27T01:24:38.589Z,7.83
2018-09-27T01:27:07.325Z,6.77
2018-09-27T01:29:35.959Z,7.10
2018-09-27T01:32:04.699Z,5.50
2018-09-27T01:34:33.410Z,4.47
2018-09-27T01:37:02.060Z,4.97
2018-09-27T01:39:30.695Z,3.97
2018-09-27T01:41:59.317Z,4.47
2018-09-27T01:44:28.003Z,9.97
2018-09-27T01:46:56.770Z,6.03
2018-09-27T01:49:25.532Z,4.07
2018-09-27T01:51:54.282Z,3.50
2018-09-27T01:54:23.048Z,4.00
2018-09-27T01:56:51.720Z,4.77
2018-09-27T01:59:20.506Z,3.10
2018-09-27T02:01:49.219Z,3.73
2018-09-27T02:04:17.942Z,4.47
2018-09-27T02:06:46.574Z,3.97
2018-09-27T02:09:15.257Z,3.23
2018-09-27T02:11:43.911Z,4.43
2018-09-27T02:14:12.845Z,4.23
2018-09-27T02:16:41.544Z,3.43
2018-09-27T02:19:10.287Z,2.97
2018-09-27T02:21:38.968Z,3.50
2018-09-27T02:24:07.655Z,2.87
2018-09-27T02:26:36.463Z,3.87
2018-09-27T02:29:05.456Z,4.03
2018-09-27T02:31:34.219Z,5.83
2018-09-27T02:34:02.868Z,4.47
2018-09-27T02:36:31.604Z,6.23
2018-09-27T02:39:00.226Z,6.30
2018-09-27T02:41:29.273Z,9.90
2018-09-27T02:43:58.313Z,6.60
2018-09-27T02:46:27.488Z,7.87
2018-09-27T02:48:56.593Z,5.33
2018-09-27T02:51:25.791Z,4.63
2018-09-27T02:53:55.018Z,5.87
2018-09-27T02:56:24.181Z,5.23
2018-09-27T02:58:53.468Z,7.90
2018-09-27T03:01:22.528Z,3.67
2018-09-27T03:03:51.572Z,5.07
2018-09-27T03:06:20.662Z,8.57
2018-09-27T03:08:49.851Z,5.67
2018-09-27T03:11:18.971Z,13.90
2018-09-27T03:13:48.062Z,7.40
2018-09-27T03:16:17.172Z,7.93
2018-09-27T03:18:46.438Z,4.97
2018-09-27T03:21:15.590Z,6.20
2018-09-27T03:23:45.556Z,8.87
2018-09-27T03:26:20.073Z,8.67
2018-09-27T03:28:48.288Z,7.13
2018-09-27T03:31:16.498Z,4.70
2018-09-27T03:33:45.192Z,7.83
2018-09-27T03:36:13.929Z,4.50
2018-09-27T03:38:42.555Z,3.83
2018-09-27T03:41:11.232Z,6.20
2018-09-27T03:43:39.923Z,4.77
2018-09-27T03:46:08.638Z,18.03
2018-09-27T03:48:37.260Z,6.63
2018-09-27T03:51:05.996Z,8.53
2018-09-27T03:53:34.631Z,6.70
2018-09-27T03:56:04.044Z,4.70
2018-09-27T03:58:32.758Z,4.90
2018-09-27T04:01:01.389Z,6.47
2018-09-27T04:03:30.050Z,5.70
2018-09-27T04:05:58.660Z,12.03
2018-09-27T04:08:27.386Z,7.00
2018-09-27T04:10:56.027Z,4.57
2018-09-27T04:13:24.718Z,4.87
2018-09-27T04:15:53.410Z,5.83
2018-09-27T04:18:22.064Z,6.13
2018-09-27T04:20:53.070Z,11.90
2018-09-27T04:23:23.478Z,6.97
2018-09-27T04:25:52.531Z,4.80
2018-09-27T04:28:21.700Z,10.63
2018-09-27T04:30:50.319Z,4.67
2018-09-27T04:33:19.006Z,8.70
2018-09-27T04:35:47.791Z,6.90
2018-09-27T04:38:16.497Z,6.40
2018-09-27T04:40:45.187Z,7.23
2018-09-27T04:43:13.831Z,12.80
2018-09-27T04:45:42.672Z,5.53
2018-09-27T04:48:11.542Z,6.87
2018-09-27T04:50:40.384Z,18.33
2018-09-27T04:53:09.017Z,4.90
2018-09-27T04:55:37.898Z,7.47
2018-09-27T04:58:06.560Z,4.67
2018-09-27T05:00:35.218Z,20.37
2018-09-27T05:03:03.901Z,11.90
2018-09-27T05:05:32.549Z,6.53
2018-09-27T05:08:01.227Z,7.13
2018-09-27T05:10:29.892Z,5.03
2018-09-27T05:12:58.684Z,5.30
2018-09-27T05:15:27.682Z,10.20
2018-09-27T05:17:56.384Z,7.23
2018-09-27T05:20:25.167Z,6.63
2018-09-27T05:22:54.052Z,7.37
2018-09-27T05:25:22.720Z,5.27
2018-09-27T05:27:51.427Z,6.20
2018-09-27T05:30:21.551Z,8.20
2018-09-27T05:32:50.278Z,6.20
2018-09-27T05:35:19.042Z,7.37
2018-09-27T05:37:48.727Z,6.63
2018-09-27T05:40:17.511Z,6.83
2018-09-27T05:42:46.263Z,5.30
2018-09-27T05:45:15.014Z,5.70
2018-09-27T05:47:43.720Z,6.53
2018-09-27T05:50:12.499Z,6.93
2018-09-27T05:52:41.216Z,6.40
2018-09-27T05:55:10.014Z,7.17
2018-09-27T05:57:39.040Z,6.80
2018-09-27T06:00:07.880Z,17.40
2018-09-27T06:02:36.797Z,33.53
2018-09-27T06:05:05.621Z,28.67
2018-09-27T06:07:34.382Z,31.47
2018-09-27T06:10:03.204Z,17.87
2018-09-27T06:12:31.954Z,28.20
2018-09-27T06:15:00.639Z,29.03
2018-09-27T06:17:29.472Z,24.40
2018-09-27T06:19:58.372Z,27.80
2018-09-27T06:22:27.228Z,20.33
2018-09-27T06:24:56.003Z,23.30
2018-09-27T06:27:24.874Z,22.37
2018-09-27T06:29:53.554Z,20.60
2018-09-27T06:32:22.435Z,23.90
2018-09-27T06:34:51.361Z,22.30
2018-09-27T06:37:19.983Z,19.83
2018-09-27T06:39:48.697Z,19.83
2018-09-27T06:42:17.360Z,19.53
2018-09-27T06:44:46.428Z,20.70
2018-09-27T06:47:15.366Z,21.67
2018-09-27T06:49:44.159Z,17.27
2018-09-27T06:52:13.074Z,20.50
2018-09-27T06:54:41.921Z,18.73
2018-09-27T06:57:10.529Z,14.93
2018-09-27T06:59:39.352Z,16.93
2018-09-27T07:02:08.208Z,17.10
2018-09-27T07:04:37.092Z,15.37
2018-09-27T07:07:06.096Z,15.60
2018-09-27T07:09:34.913Z,16.87
2018-09-27T07:12:04.452Z,17.30
2018-09-27T07:14:33.327Z,17.47
2018-09-27T07:17:02.311Z,15.40
2018-09-27T07:19:31.090Z,14.53
2018-09-27T07:21:59.799Z,17.50
2018-09-27T07:24:28.466Z,15.43
2018-09-27T07:26:57.297Z,14.07
2018-09-27T07:29:26.037Z,15.43
2018-09-27T07:31:54.813Z,12.90
2018-09-27T07:34:23.553Z,14.77
2018-09-27T07:36:52.343Z,13.63
2018-09-27T07:39:21.162Z,16.25
2018-09-27T07:41:50.127Z,17.43
2018-09-27T07:44:18.972Z,19.60
2018-09-27T07:46:47.846Z,14.20
2018-09-27T07:49:16.765Z,15.23
2018-09-27T07:51:45.536Z,12.37
2018-09-27T07:54:14.433Z,18.23
2018-09-27T07:56:43.234Z,14.00
2018-09-27T07:59:12.028Z,15.90
2018-09-27T08:01:40.827Z,12.83
2018-09-27T08:04:09.781Z,12.83
2018-09-27T08:06:38.456Z,16.20
2018-09-27T08:09:07.511Z,11.63
2018-09-27T08:11:37.141Z,12.50
2018-09-27T08:14:06.195Z,15.47
2018-09-27T08:16:34.941Z,12.17
2018-09-27T08:19:04.404Z,13.23
2018-09-27T08:21:33.308Z,10.57
2018-09-27T08:24:02.089Z,13.47
2018-09-27T08:26:30.905Z,17.93
2018-09-27T08:28:59.824Z,10.90
2018-09-27T08:31:29.437Z,14.93
2018-09-27T08:33:58.247Z,12.70
2018-09-27T08:36:27.160Z,10.47
2018-09-27T08:38:55.943Z,11.43
2018-09-27T08:41:24.791Z,11.70
2018-09-27T08:43:53.707Z,17.03
2018-09-27T08:46:22.718Z,11.77
2018-09-27T08:48:51.617Z,8.30
2018-09-27T08:51:20.500Z,8.83
2018-09-27T08:53:49.533Z,9.80
2018-09-27T08:56:18.412Z,12.60
2018-09-27T08:58:47.257Z,11.20
2018-09-27T09:01:16.078Z,9.43
2018-09-27T09:03:45.008Z,9.57
2018-09-27T09:06:13.753Z,8.67
2018-09-27T09:08:42.544Z,8.27
2018-09-27T09:11:11.505Z,12.37
2018-09-27T09:13:40.780Z,9.17
2018-09-27T09:16:10.086Z,9.17
2018-09-27T09:18:39.532Z,8.43
2018-09-27T09:21:08.721Z,9.13
2018-09-27T09:23:38.072Z,7.30
2018-09-27T09:26:07.999Z,7.60
2018-09-27T09:28:37.049Z,9.03
2018-09-27T09:31:06.255Z,7.57
2018-09-27T09:33:35.566Z,10.63
2018-09-27T09:36:05.330Z,8.87
2018-09-27T09:38:34.376Z,7.17
2018-09-27T09:41:05.604Z,6.10
2018-09-27T09:43:35.754Z,8.27
2018-09-27T09:46:06.184Z,7.53
2018-09-27T09:48:35.311Z,6.27
2018-09-27T09:51:04.255Z,8.53
2018-09-27T09:53:33.145Z,6.43
2018-09-27T09:56:02.214Z,10.40
2018-09-27T09:58:31.091Z,7.63
2018-09-27T10:01:00.733Z,4.70
2018-09-27T10:03:29.629Z,7.17
2018-09-27T10:05:58.933Z,8.70
2018-09-27T10:08:27.899Z,8.27
2018-09-27T10:10:56.825Z,9.03
2018-09-27T10:13:25.783Z,8.00
2018-09-27T10:15:54.618Z,7.10
2018-09-27T10:18:23.518Z,9.33
2018-09-27T10:20:52.228Z,6.17
2018-09-27T10:23:20.971Z,6.37
2018-09-27T10:25:49.860Z,6.30
2018-09-27T10:28:18.675Z,6.03
2018-09-27T10:30:47.644Z,7.73
2018-09-27T10:33:16.458Z,6.90
2018-09-27T10:35:45.193Z,4.50
2018-09-27T10:38:13.897Z,6.90
2018-09-27T10:40:42.952Z,4.67
2018-09-27T10:43:11.884Z,6.50
2018-09-27T10:45:40.859Z,5.13
2018-09-27T10:48:09.821Z,4.17
2018-09-27T10:50:38.565Z,6.37
2018-09-27T10:53:07.666Z,12.03
2018-09-27T10:55:36.480Z,8.40
2018-09-27T10:58:06.475Z,5.10
2018-09-27T11:00:35.488Z,5.00
2018-09-27T11:03:04.692Z,4.30
2018-09-27T11:05:33.703Z,5.97
2018-09-27T11:08:02.596Z,6.03
2018-09-27T11:10:31.476Z,4.67
2018-09-27T11:13:00.445Z,9.07
2018-09-27T11:15:29.354Z,8.83
2018-09-27T11:17:58.532Z,5.93
2018-09-27T11:20:27.360Z,7.47
2018-09-27T11:22:56.296Z,5.80
2018-09-27T11:25:25.021Z,7.63
2018-09-27T11:27:53.934Z,4.13
2018-09-27T11:30:28.189Z,3.20
2018-09-27T11:32:57.054Z,5.23
2018-09-27T11:35:26.172Z,3.33
2018-09-27T11:37:55.478Z,4.13
2018-09-27T11:40:24.729Z,7.60
2018-09-27T11:42:53.521Z,5.07
2018-09-27T11:45:22.505Z,3.43
2018-09-27T11:47:51.571Z,3.97
2018-09-27T11:50:20.253Z,5.93
2018-09-27T11:52:49.002Z,4.87
2018-09-27T11:55:17.901Z,4.20
2018-09-27T11:57:46.682Z,5.87
2018-09-27T12:00:15.948Z,6.67
2018-09-27T12:02:45.189Z,3.73
2018-09-27T12:05:14.082Z,3.63
2018-09-27T12:07:42.896Z,4.10
2018-09-27T12:10:12.114Z,3.43
2018-09-27T12:12:41.225Z,3.13
2018-09-27T12:15:09.944Z,4.90
2018-09-27T12:17:39.190Z,4.90
2018-09-27T12:20:08.121Z,4.43
2018-09-27T12:22:36.909Z,3.23
2018-09-27T12:25:05.823Z,3.03
2018-09-27T12:27:34.668Z,2.87
2018-09-27T12:30:03.465Z,3.63
2018-09-27T12:32:32.552Z,3.43
2018-09-27T12:35:01.427Z,3.57
2018-09-27T12:37:30.559Z,4.00
2018-09-27T12:39:59.873Z,3.77
2018-09-27T12:42:28.872Z,5.50
2018-09-27T12:44:57.983Z,3.63
2018-09-27T12:47:26.827Z,3.03
2018-09-27T12:49:55.557Z,3.20
2018-09-27T12:52:24.770Z,4.60
2018-09-27T12:54:53.159Z,2.63
2018-09-27T12:57:21.909Z,5.10
2018-09-27T12:59:50.636Z,7.60
2018-09-27T13:02:19.497Z,4.67
2018-09-27T13:04:48.188Z,4.10
2018-09-27T13:07:17.053Z,4.37
2018-09-27T13:09:45.983Z,5.23
2018-09-27T13:12:14.801Z,7.40
2018-09-27T13:14:43.504Z,3.23
2018-09-27T13:17:12.279Z,4.93
2018-09-27T13:19:41.172Z,8.43
2018-09-27T13:22:09.938Z,5.43
2018-09-27T13:24:38.829Z,3.53
2018-09-27T13:27:07.558Z,4.00
2018-09-27T13:29:36.272Z,5.20
2018-09-27T13:32:05.111Z,9.73
2018-09-27T13:34:34.213Z,4.03
2018-09-27T13:37:02.982Z,3.43
2018-09-27T13:39:31.692Z,3.87
2018-09-27T13:42:00.424Z,4.87
2018-09-27T13:44:29.231Z,3.97
2018-09-27T13:46:58.055Z,3.93
2018-09-27T13:49:26.814Z,4.53
2018-09-27T13:51:55.809Z,3.77
2018-09-27T13:54:24.692Z,3.83
2018-09-27T13:56:53.657Z,3.30
2018-09-27T13:59:22.700Z,3.40
2018-09-27T14:01:51.527Z,5.03
2018-09-27T14:04:20.705Z,4.60
2018-09-27T14:06:49.875Z,3.73
2018-09-27T14:09:18.743Z,4.90
2018-09-27T14:11:47.667Z,3.83
2018-09-27T14:14:16.651Z,4.13
2018-09-27T14:16:45.517Z,4.40
2018-09-27T14:19:14.391Z,4.47
2018-09-27T14:21:44.314Z,3.30
2018-09-27T14:24:13.659Z,3.53
2018-09-27T14:26:42.924Z,5.00
2018-09-27T14:29:12.149Z,4.43
2018-09-27T14:31:42.267Z,4.07
2018-09-27T14:34:11.352Z,5.50
2018-09-27T14:36:40.584Z,4.77
2018-09-27T14:39:10.894Z,4.40
2018-09-27T14:41:40.552Z,7.83
2018-09-27T14:44:10.742Z,4.80
2018-09-27T14:46:41.811Z,3.37
2018-09-27T14:49:12.270Z,4.00
2018-09-27T14:51:43.999Z,4.17
2018-09-27T14:54:16.036Z,5.47
2018-09-27T14:56:45.987Z,2.60
2018-09-27T14:59:16.194Z,3.40
2018-09-27T15:01:45.925Z,3.13
2018-09-27T15:04:16.224Z,4.60
2018-09-27T15:06:45.845Z,4.37
2018-09-27T15:09:15.532Z,6.30
2018-09-27T15:11:45.189Z,2.57
2018-09-27T15:14:14.557Z,2.77
2018-09-27T15:16:43.726Z,2.47
2018-09-27T15:19:12.877Z,2.57
2018-09-27T15:21:42.273Z,4.93
2018-09-27T15:24:11.563Z,2.80
2018-09-27T15:26:40.805Z,2.73
2018-09-27T15:29:10.455Z,2.33
2018-09-27T15:31:39.809Z,2.60
2018-09-27T15:34:09.048Z,4.03
2018-09-27T15:36:38.375Z,2.83
2018-09-27T15:39:07.575Z,4.30
2018-09-27T15:41:36.506Z,2.80
2018-09-27T15:44:05.317Z,3.23
2018-09-27T15:46:34.058Z,2.10
2018-09-27T15:49:02.878Z,2.87
2018-09-27T15:51:31.711Z,6.00
2018-09-27T15:54:00.412Z,2.37
2018-09-27T15:56:29.626Z,2.40
2018-09-27T15:58:58.544Z,2.33
2018-09-27T16:01:27.275Z,2.53
2018-09-27T16:03:56.054Z,2.80
2018-09-27T16:06:25.006Z,2.27
2018-09-27T16:08:53.793Z,2.10
2018-09-27T16:11:22.640Z,3.17
2018-09-27T16:13:51.832Z,5.27
2018-09-27T16:16:20.742Z,2.30
2018-09-27T16:18:49.445Z,2.00
2018-09-27T16:21:18.258Z,2.37
2018-09-27T16:23:46.970Z,2.43
2018-09-27T16:26:15.749Z,3.13
2018-09-27T16:28:45.030Z,2.97
2018-09-27T16:31:13.971Z,3.47
2018-09-27T16:33:43.009Z,2.67
2018-09-27T16:36:11.696Z,2.70
2018-09-27T16:38:40.368Z,3.03
2018-09-27T16:41:09.629Z,4.40
2018-09-27T16:43:38.475Z,2.50
2018-09-27T16:46:07.204Z,3.37
2018-09-27T16:48:36.417Z,5.80
2018-09-27T16:51:05.287Z,2.80
2018-09-27T16:53:34.135Z,2.77
2018-09-27T16:56:02.872Z,2.90
2018-09-27T16:58:31.852Z,4.80
2018-09-27T17:01:01.154Z,3.20
2018-09-27T17:03:30.018Z,3.77
2018-09-27T17:05:58.717Z,4.60
2018-09-27T17:08:27.424Z,4.63
2018-09-27T17:10:56.194Z,3.27
2018-09-27T17:13:24.889Z,5.50
2018-09-27T17:15:53.499Z,6.37
2018-09-27T17:18:22.512Z,3.97
2018-09-27T17:20:51.296Z,2.83
2018-09-27T17:23:20.312Z,4.97
2018-09-27T17:25:49.075Z,4.03
2018-09-27T17:28:55.166Z,2.30
2018-09-27T17:31:23.923Z,4.50
2018-09-27T17:33:54.891Z,6.77
2018-09-27T17:36:23.850Z,2.60
2018-09-27T17:38:52.619Z,3.40
2018-09-27T17:41:21.619Z,3.53
2018-09-27T17:43:50.732Z,3.47
2018-09-27T17:46:19.995Z,3.50
2018-09-27T17:48:49.647Z,4.97
2018-09-27T17:51:18.349Z,6.40
2018-09-27T17:53:47.212Z,3.90
2018-09-27T17:56:16.262Z,4.07
2018-09-27T17:58:45.143Z,5.30
2018-09-27T18:01:14.032Z,4.17
2018-09-27T18:03:42.734Z,4.83
2018-09-27T18:06:11.711Z,2.63
2018-09-27T18:08:41.223Z,3.27
2018-09-27T18:11:10.730Z,3.90
2018-09-27T18:13:40.394Z,3.80
2018-09-27T18:16:09.666Z,7.17
2018-09-27T18:18:38.712Z,4.13
2018-09-27T18:21:07.465Z,3.73
2018-09-27T18:23:37.915Z,4.07
2018-09-27T18:26:06.737Z,4.17
2018-09-27T18:28:35.806Z,4.37
2018-09-27T18:31:04.995Z,4.30
2018-09-27T18:33:34.681Z,4.67
2018-09-27T18:36:04.362Z,5.20
2018-09-27T18:38:33.170Z,4.37
2018-09-27T18:41:01.966Z,2.73
2018-09-27T18:43:32.112Z,2.90
2018-09-27T18:46:00.803Z,3.23
2018-09-27T18:48:29.575Z,3.30
2018-09-27T18:50:58.921Z,4.47
2018-09-27T18:53:27.813Z,3.03
2018-09-27T18:55:57.028Z,4.43
2018-09-27T18:58:25.888Z,7.70
2018-09-27T19:00:54.604Z,3.17
2018-09-27T19:03:23.272Z,5.23
2018-09-27T19:05:52.049Z,4.57
2018-09-27T19:08:20.780Z,4.50
2018-09-27T19:10:49.448Z,4.70
2018-09-27T19:13:18.076Z,3.63
2018-09-27T19:15:46.835Z,3.47
2018-09-27T19:18:15.477Z,5.50
2018-09-27T19:20:44.192Z,4.90
2018-09-27T19:23:12.912Z,3.60
2018-09-27T19:25:41.663Z,3.73
2018-09-27T19:28:10.532Z,4.90
2018-09-27T19:30:39.234Z,5.33
2018-09-27T19:33:07.949Z,4.13
2018-09-27T19:35:36.713Z,4.03
2018-09-27T19:38:05.386Z,3.27
2018-09-27T19:40:34.312Z,4.63
2018-09-27T19:43:03.968Z,4.17
2018-09-27T19:45:33.008Z,4.47
2018-09-27T19:48:02.050Z,4.00
2018-09-27T19:50:30.687Z,5.80
2018-09-27T19:52:59.384Z,5.90
2018-09-27T19:55:28.152Z,5.60
2018-09-27T19:57:56.988Z,4.83
2018-09-27T20:00:25.767Z,4.73
2018-09-27T20:02:54.403Z,4.23
2018-09-27T20:05:23.219Z,5.97
2018-09-27T20:07:51.888Z,4.27
2018-09-27T20:10:20.853Z,7.33
2018-09-27T20:12:49.754Z,4.27
2018-09-27T20:15:18.609Z,4.50
2018-09-27T20:17:47.645Z,5.30
2018-09-27T20:20:16.460Z,6.43
2018-09-27T20:22:45.282Z,4.63
2018-09-27T20:25:14.109Z,5.17
2018-09-27T20:27:42.734Z,6.93
2018-09-27T20:30:11.539Z,5.13
2018-09-27T20:32:40.199Z,4.77
2018-09-27T20:35:08.846Z,7.03
2018-09-27T20:37:37.503Z,7.13
2018-09-27T20:40:06.207Z,7.53
2018-09-27T20:42:34.868Z,6.30
2018-09-27T20:45:04.415Z,5.37
2018-09-27T20:47:33.240Z,7.23
2018-09-27T20:50:01.881Z,5.03
2018-09-27T20:52:30.659Z,5.97
2018-09-27T20:54:59.454Z,5.63
2018-09-27T20:57:28.133Z,7.93
2018-09-27T20:59:56.764Z,6.57
2018-09-27T21:02:25.478Z,6.03
2018-09-27T21:04:54.228Z,5.43
2018-09-27T21:07:23.013Z,5.63
2018-09-27T21:09:51.665Z,6.27
2018-09-27T21:12:20.365Z,5.77
2018-09-27T21:14:49.232Z,5.50
2018-09-27T21:17:17.925Z,6.20
2018-09-27T21:19:46.564Z,5.30
2018-09-27T21:22:15.222Z,5.60
2018-09-27T21:24:43.897Z,6.13
2018-09-27T21:27:12.853Z,6.60
2018-09-27T21:29:42.160Z,6.57
2018-09-27T21:32:11.021Z,9.27
2018-09-27T21:34:39.793Z,6.27
2018-09-27T21:37:08.831Z,6.50
2018-09-27T21:39:37.564Z,7.10
2018-09-27T21:42:06.309Z,6.27
2018-09-27T21:44:35.044Z,6.30
2018-09-27T21:47:04.198Z,8.63
2018-09-27T21:49:32.911Z,5.87
2018-09-27T21:52:01.589Z,6.67
2018-09-27T21:54:30.209Z,8.07
2018-09-27T21:56:58.995Z,11.23
2018-09-27T21:59:27.602Z,7.03
2018-09-27T22:01:56.272Z,6.13
2018-09-27T22:04:25.011Z,7.10
2018-09-27T22:06:53.668Z,5.57
2018-09-27T22:09:22.313Z,6.93
2018-09-27T22:11:50.986Z,10.37
2018-09-27T22:14:19.614Z,6.63
2018-09-27T22:16:48.365Z,5.07
2018-09-27T22:19:17.004Z,5.83
2018-09-27T22:21:45.606Z,10.00
2018-09-27T22:24:14.232Z,11.10
2018-09-27T22:26:42.859Z,6.00
2018-09-27T22:29:11.506Z,8.43
2018-09-27T22:31:40.214Z,8.27
2018-09-27T22:34:08.837Z,7.47
2018-09-27T22:36:43.437Z,7.67
2018-09-27T22:39:12.095Z,11.40
2018-09-27T22:41:40.781Z,7.33
2018-09-27T22:44:09.407Z,13.27
2018-09-27T22:46:38.504Z,10.37
2018-09-27T22:49:07.155Z,11.93
2018-09-27T22:51:35.812Z,11.40
2018-09-27T22:54:04.420Z,12.17
2018-09-27T22:56:33.020Z,7.90
2018-09-27T22:59:01.716Z,11.67
2018-09-27T23:01:30.634Z,10.43
2018-09-27T23:03:59.256Z,13.63
2018-09-27T23:06:28.029Z,9.17
2018-09-27T23:08:56.632Z,14.30
2018-09-27T23:11:25.420Z,13.13
2018-09-27T23:13:54.065Z,7.97
2018-09-27T23:16:22.650Z,12.13
2018-09-27T23:18:51.268Z,7.70
2018-09-27T23:21:19.920Z,10.77
2018-09-27T23:23:48.528Z,12.77
2018-09-27T23:26:17.143Z,8.27
2018-09-27T23:28:45.743Z,13.80
2018-09-27T23:31:14.428Z,11.20
2018-09-27T23:33:43.128Z,19.60
2018-09-27T23:36:11.890Z,14.60
2018-09-27T23:38:40.528Z,8.93
2018-09-27T23:41:09.153Z,17.00
2018-09-27T23:43:37.981Z,6.63
2018-09-27T23:46:07.254Z,7.57
2018-09-27T23:48:35.919Z,9.83
2018-09-27T23:51:04.658Z,7.50
2018-09-27T23:53:33.292Z,7.80
2018-09-27T23:56:01.988Z,15.07
2018-09-27T23:58:30.684Z,9.53
